This is the latest recevied weather packets stored in our database for station/object EA2AFZ-W. If no packets are shown the sender has not sent any weather packets the latest 1 day(s).
| Time | Temp. | Humidity | Pressure | Rain* | Wind** | Luminosity | Snow |
|---|---|---|---|---|---|---|---|
| 1836274688 | 23.33° C | 52% | 1017 hPa | 0 mm | 4.47 m/s, 130° | - | - |
| 1778037352 | 11.11° C | 94% | 1013 hPa | 0 mm | 8.05 m/s, 300° | - | - |
| 1778035549 | 11.11° C | 95% | 1014 hPa | 0 mm | 8.05 m/s, 300° | - | - |
| 1778033748 | 11.11° C | 92% | 1014 hPa | 0 mm | 8.05 m/s, 300° | - | - |
| 1778031946 | 10.56° C | 94% | 1014 hPa | 0 mm | 8.05 m/s, 300° | - | - |
| 1778030144 | 11.11° C | 97% | 1014 hPa | 0 mm | 8.05 m/s, 300° | - | - |
| 1778028341 | 11.11° C | 96% | 1014 hPa | 0 mm | 8.05 m/s, 300° | - | - |
| 1778026539 | 11.11° C | 96% | 1014 hPa | 0 mm | 8.05 m/s, 300° | - | - |
| 1778024736 | 11.11° C | 96% | 1014 hPa | 0 mm | 8.05 m/s, 300° | - | - |
| 1778022934 | 11.11° C | 96% | 1014 hPa | 0 mm | 8.05 m/s, 300° | - | - |
| 1778021133 | 11.11° C | 96% | 1015 hPa | 0 mm | 8.05 m/s, 300° | - | - |
| 1778019330 | 11.11° C | 95% | 1014 hPa | 0 mm | 8.05 m/s, 300° | - | - |
| 1778017528 | 11.67° C | 93% | 1015 hPa | 0 mm | 8.05 m/s, 300° | - | - |
| 1778015726 | 12.22° C | 92% | 1015 hPa | 0 mm | 8.05 m/s, 300° | - | - |
| 1778013923 | 12.22° C | 84% | 1015 hPa | 0 mm | 8.05 m/s, 300° | - | - |
| 1778012121 | 12.78° C | 85% | 1014 hPa | 0 mm | 8.05 m/s, 300° | - | - |
| 1778010319 | 12.22° C | 78% | 1014 hPa | 0 mm | 8.05 m/s, 300° | - | - |
| 1778008518 | 12.78° C | 73% | 1014 hPa | 0 mm | 8.05 m/s, 300° | - | - |
| 1778006715 | 13.89° C | 67% | 1014 hPa | 0 mm | 8.05 m/s, 300° | - | - |
| 1778004912 | 14.44° C | 67% | 1014 hPa | 0 mm | 8.05 m/s, 300° | - | - |
| 1778003110 | 13.33° C | 70% | 1014 hPa | 0 mm | 8.05 m/s, 300° | - | - |
| 1778001308 | 13.33° C | 67% | 1014 hPa | 0 mm | 8.05 m/s, 300° | - | - |
| 1777999506 | 13.33° C | 67% | 1014 hPa | 0 mm | 8.05 m/s, 300° | - | - |
| 1777997764 | 13.89° C | 71% | 1014 hPa | 0 mm | 8.05 m/s, 300° | - | - |
| 1777995962 | 13.89° C | 70% | 1014 hPa | 0 mm | 8.05 m/s, 300° | - | - |
* Rain latest hour (hover to see other rain measurements)
** Current wind speed in m/s (hover to see current wind gust speed)